sensor_id;sensor_type;location;lat;lon;timestamp;pressure;altitude;pressure_sealevel;temperature;humidity
6038;BME280;3047;42.600;23.470;2023-02-27T00:00:51;92212.34;;;12.01;78.41
6038;BME280;3047;42.600;23.470;2023-02-27T00:03:17;92206.75;;;11.94;78.36
6038;BME280;3047;42.600;23.470;2023-02-27T00:05:44;92216.94;;;11.93;77.70
6038;BME280;3047;42.600;23.470;2023-02-27T00:08:11;92212.03;;;12.07;76.55
6038;BME280;3047;42.600;23.470;2023-02-27T00:10:37;92184.72;;;11.96;75.83
6038;BME280;3047;42.600;23.470;2023-02-27T00:13:04;92165.75;;;11.87;75.16
6038;BME280;3047;42.600;23.470;2023-02-27T00:15:33;92197.53;;;12.10;75.03
6038;BME280;3047;42.600;23.470;2023-02-27T00:17:59;92206.47;;;12.18;74.43
6038;BME280;3047;42.600;23.470;2023-02-27T00:20:26;92210.25;;;12.09;75.53
6038;BME280;3047;42.600;23.470;2023-02-27T00:22:53;92206.97;;;12.07;75.31
6038;BME280;3047;42.600;23.470;2023-02-27T00:25:20;92217.03;;;12.08;74.76
6038;BME280;3047;42.600;23.470;2023-02-27T00:27:46;92216.66;;;12.16;75.06
6038;BME280;3047;42.600;23.470;2023-02-27T00:30:13;92211.91;;;12.10;74.38
6038;BME280;3047;42.600;23.470;2023-02-27T00:32:42;92208.63;;;12.08;73.80
6038;BME280;3047;42.600;23.470;2023-02-27T00:35:11;92206.69;;;12.13;72.56
6038;BME280;3047;42.600;23.470;2023-02-27T00:37:38;92205.19;;;12.09;72.74
6038;BME280;3047;42.600;23.470;2023-02-27T00:40:06;92202.34;;;12.15;73.16
6038;BME280;3047;42.600;23.470;2023-02-27T00:42:33;92212.25;;;12.02;74.29
6038;BME280;3047;42.600;23.470;2023-02-27T00:45:00;92204.88;;;11.98;74.74
6038;BME280;3047;42.600;23.470;2023-02-27T00:47:27;92204.00;;;11.99;74.05
6038;BME280;3047;42.600;23.470;2023-02-27T00:49:55;92204.53;;;11.88;74.73
6038;BME280;3047;42.600;23.470;2023-02-27T00:52:21;92204.84;;;11.80;74.64
6038;BME280;3047;42.600;23.470;2023-02-27T00:54:48;92198.78;;;11.66;74.20
6038;BME280;3047;42.600;23.470;2023-02-27T00:57:15;92215.88;;;11.79;74.05
6038;BME280;3047;42.600;23.470;2023-02-27T00:59:42;92186.38;;;11.61;74.00
6038;BME280;3047;42.600;23.470;2023-02-27T01:02:09;92204.66;;;11.66;74.15
6038;BME280;3047;42.600;23.470;2023-02-27T01:04:35;92208.66;;;11.53;75.60
6038;BME280;3047;42.600;23.470;2023-02-27T01:07:03;92210.03;;;11.60;75.54
6038;BME280;3047;42.600;23.470;2023-02-27T01:09:30;92204.28;;;11.56;76.88
6038;BME280;3047;42.600;23.470;2023-02-27T01:11:57;92205.00;;;11.58;77.34
6038;BME280;3047;42.600;23.470;2023-02-27T01:14:24;92198.06;;;11.63;77.49
6038;BME280;3047;42.600;23.470;2023-02-27T01:16:50;92212.94;;;11.70;77.84
6038;BME280;3047;42.600;23.470;2023-02-27T01:19:17;92206.47;;;11.81;78.34
6038;BME280;3047;42.600;23.470;2023-02-27T01:21:44;92194.63;;;11.83;77.63
6038;BME280;3047;42.600;23.470;2023-02-27T01:24:12;92207.78;;;11.90;77.97
6038;BME280;3047;42.600;23.470;2023-02-27T01:26:39;92204.31;;;12.10;77.48
6038;BME280;3047;42.600;23.470;2023-02-27T01:29:06;92167.03;;;11.96;76.92
6038;BME280;3047;42.600;23.470;2023-02-27T01:31:32;92190.97;;;12.06;77.73
6038;BME280;3047;42.600;23.470;2023-02-27T01:33:59;92196.09;;;12.22;76.80
6038;BME280;3047;42.600;23.470;2023-02-27T01:36:26;92206.69;;;12.30;76.01
6038;BME280;3047;42.600;23.470;2023-02-27T01:38:52;92212.66;;;12.29;76.10
6038;BME280;3047;42.600;23.470;2023-02-27T01:41:20;92223.50;;;12.31;76.78
6038;BME280;3047;42.600;23.470;2023-02-27T01:43:55;92226.13;;;12.30;77.05
6038;BME280;3047;42.600;23.470;2023-02-27T01:46:22;92218.91;;;12.22;76.93
6038;BME280;3047;42.600;23.470;2023-02-27T01:48:49;92232.59;;;12.35;76.23
6038;BME280;3047;42.600;23.470;2023-02-27T01:51:19;92192.31;;;11.96;76.65
6038;BME280;3047;42.600;23.470;2023-02-27T01:53:49;92249.56;;;12.33;76.88
6038;BME280;3047;42.600;23.470;2023-02-27T01:56:18;92250.41;;;12.34;76.62
6038;BME280;3047;42.600;23.470;2023-02-27T01:58:48;92243.84;;;12.30;77.09
6038;BME280;3047;42.600;23.470;2023-02-27T02:01:15;92250.72;;;12.28;78.10
6038;BME280;3047;42.600;23.470;2023-02-27T02:03:46;92250.25;;;12.20;78.80
6038;BME280;3047;42.600;23.470;2023-02-27T02:06:14;92251.19;;;12.00;80.16
6038;BME280;3047;42.600;23.470;2023-02-27T02:08:43;92261.09;;;12.04;80.00
6038;BME280;3047;42.600;23.470;2023-02-27T02:11:12;92264.81;;;12.15;78.80
6038;BME280;3047;42.600;23.470;2023-02-27T02:13:40;92252.84;;;12.01;79.18
6038;BME280;3047;42.600;23.470;2023-02-27T02:16:20;92267.59;;;12.27;79.13
6038;BME280;3047;42.600;23.470;2023-02-27T02:18:53;92266.53;;;12.14;80.64
6038;BME280;3047;42.600;23.470;2023-02-27T02:21:49;92278.56;;;12.28;80.23
6038;BME280;3047;42.600;23.470;2023-02-27T02:25:05;92301.25;;;12.12;82.39
6038;BME280;3047;42.600;23.470;2023-02-27T02:27:45;92427.06;;;12.10;87.47
6038;BME280;3047;42.600;23.470;2023-02-27T02:33:32;92460.22;;;11.64;90.33
6038;BME280;3047;42.600;23.470;2023-02-27T02:39:48;92480.41;;;11.25;97.02
6038;BME280;3047;42.600;23.470;2023-02-27T02:42:21;92491.50;;;11.01;99.99
6038;BME280;3047;42.600;23.470;2023-02-27T02:44:56;92469.72;;;10.76;99.45
6038;BME280;3047;42.600;23.470;2023-02-27T02:47:33;92507.31;;;10.84;100.00
6038;BME280;3047;42.600;23.470;2023-02-27T02:50:07;92448.81;;;10.29;98.77
6038;BME280;3047;42.600;23.470;2023-02-27T02:52:43;92502.19;;;10.42;100.00
6038;BME280;3047;42.600;23.470;2023-02-27T02:55:20;92507.88;;;10.23;100.00
6038;BME280;3047;42.600;23.470;2023-02-27T02:57:53;92497.19;;;10.16;100.00
6038;BME280;3047;42.600;23.470;2023-02-27T03:00:24;92504.38;;;10.04;100.00
6038;BME280;3047;42.600;23.470;2023-02-27T03:02:56;92492.47;;;9.84;100.00
6038;BME280;3047;42.600;23.470;2023-02-27T03:05:26;92530.81;;;9.94;100.00
6038;BME280;3047;42.600;23.470;2023-02-27T03:07:58;92526.66;;;9.68;100.00
6038;BME280;3047;42.600;23.470;2023-02-27T03:10:31;92529.97;;;9.70;100.00
6038;BME280;3047;42.600;23.470;2023-02-27T03:13:02;92465.13;;;9.23;100.00
6038;BME280;3047;42.600;23.470;2023-02-27T03:15:34;92517.94;;;9.53;100.00
6038;BME280;3047;42.600;23.470;2023-02-27T03:18:05;92495.59;;;9.42;100.00
6038;BME280;3047;42.600;23.470;2023-02-27T03:20:38;92494.53;;;9.49;100.00
6038;BME280;3047;42.600;23.470;2023-02-27T03:23:09;92492.16;;;9.45;100.00
6038;BME280;3047;42.600;23.470;2023-02-27T03:25:40;92500.53;;;9.45;100.00
6038;BME280;3047;42.600;23.470;2023-02-27T03:28:14;92493.88;;;9.44;100.00
6038;BME280;3047;42.600;23.470;2023-02-27T03:30:47;92504.59;;;9.49;100.00
6038;BME280;3047;42.600;23.470;2023-02-27T03:33:20;92511.59;;;9.41;100.00
6038;BME280;3047;42.600;23.470;2023-02-27T03:35:52;92529.81;;;9.49;100.00
6038;BME280;3047;42.600;23.470;2023-02-27T03:38:29;92546.41;;;9.55;100.00
6038;BME280;3047;42.600;23.470;2023-02-27T03:41:06;92568.22;;;9.56;100.00
6038;BME280;3047;42.600;23.470;2023-02-27T03:43:43;92571.63;;;9.55;100.00
6038;BME280;3047;42.600;23.470;2023-02-27T03:46:12;92570.41;;;9.66;100.00
6038;BME280;3047;42.600;23.470;2023-02-27T03:48:39;92554.41;;;9.68;100.00
6038;BME280;3047;42.600;23.470;2023-02-27T03:51:09;92554.13;;;9.75;100.00
6038;BME280;3047;42.600;23.470;2023-02-27T03:53:39;92534.19;;;9.69;100.00
6038;BME280;3047;42.600;23.470;2023-02-27T03:56:10;92548.81;;;9.84;100.00
6038;BME280;3047;42.600;23.470;2023-02-27T03:58:38;92566.09;;;9.70;100.00
6038;BME280;3047;42.600;23.470;2023-02-27T04:01:05;92589.44;;;9.50;100.00
6038;BME280;3047;42.600;23.470;2023-02-27T04:03:33;92601.97;;;9.52;100.00
6038;BME280;3047;42.600;23.470;2023-02-27T04:06:00;92612.22;;;9.47;100.00
6038;BME280;3047;42.600;23.470;2023-02-27T04:08:55;92578.69;;;9.19;100.00
6038;BME280;3047;42.600;23.470;2023-02-27T04:11:42;92617.09;;;9.52;100.00
6038;BME280;3047;42.600;23.470;2023-02-27T04:14:21;92609.34;;;9.58;100.00
6038;BME280;3047;42.600;23.470;2023-02-27T04:16:59;92614.47;;;9.56;100.00
6038;BME280;3047;42.600;23.470;2023-02-27T04:19:50;92622.34;;;9.46;100.00
6038;BME280;3047;42.600;23.470;2023-02-27T04:22:29;92618.44;;;9.37;100.00
6038;BME280;3047;42.600;23.470;2023-02-27T04:25:05;92552.53;;;8.95;100.00
6038;BME280;3047;42.600;23.470;2023-02-27T04:27:39;92617.78;;;9.30;100.00
6038;BME280;3047;42.600;23.470;2023-02-27T04:30:21;92615.72;;;9.16;100.00
6038;BME280;3047;42.600;23.470;2023-02-27T04:32:54;92625.28;;;9.05;100.00
6038;BME280;3047;42.600;23.470;2023-02-27T04:35:26;92637.56;;;9.16;100.00
6038;BME280;3047;42.600;23.470;2023-02-27T04:37:58;92643.38;;;9.18;100.00
6038;BME280;3047;42.600;23.470;2023-02-27T04:40:32;92654.50;;;9.11;100.00
6038;BME280;3047;42.600;23.470;2023-02-27T04:43:02;92649.00;;;8.98;100.00
6038;BME280;3047;42.600;23.470;2023-02-27T04:45:32;92650.97;;;8.88;100.00
6038;BME280;3047;42.600;23.470;2023-02-27T04:48:06;92659.66;;;8.78;100.00
6038;BME280;3047;42.600;23.470;2023-02-27T04:50:42;92649.16;;;8.64;100.00
6038;BME280;3047;42.600;23.470;2023-02-27T04:53:13;92704.34;;;9.01;100.00
6038;BME280;3047;42.600;23.470;2023-02-27T04:55:45;92722.88;;;8.99;100.00
6038;BME280;3047;42.600;23.470;2023-02-27T04:58:18;92711.16;;;8.66;100.00
6038;BME280;3047;42.600;23.470;2023-02-27T05:00:49;92722.03;;;8.69;100.00
6038;BME280;3047;42.600;23.470;2023-02-27T05:03:23;92709.19;;;8.47;100.00
6038;BME280;3047;42.600;23.470;2023-02-27T05:05:52;92711.41;;;8.59;100.00
6038;BME280;3047;42.600;23.470;2023-02-27T05:08:31;92735.38;;;8.72;100.00
6038;BME280;3047;42.600;23.470;2023-02-27T05:11:03;92708.84;;;8.26;100.00
6038;BME280;3047;42.600;23.470;2023-02-27T05:13:37;92739.38;;;8.48;100.00
6038;BME280;3047;42.600;23.470;2023-02-27T05:16:10;92772.50;;;8.64;100.00
6038;BME280;3047;42.600;23.470;2023-02-27T05:18:39;92773.34;;;8.64;100.00
6038;BME280;3047;42.600;23.470;2023-02-27T05:21:16;92777.78;;;8.55;100.00
6038;BME280;3047;42.600;23.470;2023-02-27T05:23:52;92789.78;;;8.45;100.00
6038;BME280;3047;42.600;23.470;2023-02-27T05:26:29;92786.31;;;8.49;100.00
6038;BME280;3047;42.600;23.470;2023-02-27T05:29:02;92760.38;;;8.47;100.00
6038;BME280;3047;42.600;23.470;2023-02-27T05:31:36;92780.31;;;8.55;100.00
6038;BME280;3047;42.600;23.470;2023-02-27T05:34:09;92751.66;;;8.25;100.00
6038;BME280;3047;42.600;23.470;2023-02-27T05:36:39;92766.88;;;8.54;100.00
6038;BME280;3047;42.600;23.470;2023-02-27T05:39:09;92773.69;;;8.51;100.00
6038;BME280;3047;42.600;23.470;2023-02-27T05:41:42;92779.38;;;8.59;100.00
6038;BME280;3047;42.600;23.470;2023-02-27T05:44:15;92796.03;;;8.63;100.00
6038;BME280;3047;42.600;23.470;2023-02-27T05:46:47;92786.16;;;8.55;100.00
6038;BME280;3047;42.600;23.470;2023-02-27T05:49:19;92774.34;;;8.59;100.00
6038;BME280;3047;42.600;23.470;2023-02-27T05:51:50;92772.09;;;8.47;100.00
6038;BME280;3047;42.600;23.470;2023-02-27T05:54:22;92797.63;;;8.65;100.00
6038;BME280;3047;42.600;23.470;2023-02-27T05:56:51;92787.81;;;8.56;100.00
6038;BME280;3047;42.600;23.470;2023-02-27T05:59:23;92807.16;;;8.54;100.00
6038;BME280;3047;42.600;23.470;2023-02-27T06:01:53;92812.66;;;8.69;100.00
6038;BME280;3047;42.600;23.470;2023-02-27T06:04:20;92815.78;;;8.78;100.00
6038;BME280;3047;42.600;23.470;2023-02-27T06:06:47;92810.41;;;8.90;100.00
6038;BME280;3047;42.600;23.470;2023-02-27T06:09:14;92815.66;;;9.14;99.57
6038;BME280;3047;42.600;23.470;2023-02-27T06:11:41;92833.50;;;9.37;96.97
6038;BME280;3047;42.600;23.470;2023-02-27T06:14:07;92819.06;;;9.43;97.42
6038;BME280;3047;42.600;23.470;2023-02-27T06:16:36;92815.47;;;9.79;97.64
6038;BME280;3047;42.600;23.470;2023-02-27T06:19:03;92790.22;;;9.81;94.06
6038;BME280;3047;42.600;23.470;2023-02-27T06:21:30;92819.28;;;9.93;91.61
6038;BME280;3047;42.600;23.470;2023-02-27T06:23:58;92733.44;;;9.68;88.77
6038;BME280;3047;42.600;23.470;2023-02-27T06:26:24;92831.41;;;10.36;88.05
6038;BME280;3047;42.600;23.470;2023-02-27T06:28:51;92830.09;;;10.51;86.88
6038;BME280;3047;42.600;23.470;2023-02-27T06:31:18;92832.13;;;10.66;88.27
6038;BME280;3047;42.600;23.470;2023-02-27T06:33:46;92840.16;;;10.77;85.91
6038;BME280;3047;42.600;23.470;2023-02-27T06:36:13;92846.31;;;10.70;87.27
6038;BME280;3047;42.600;23.470;2023-02-27T06:38:39;92844.47;;;10.75;87.48
6038;BME280;3047;42.600;23.470;2023-02-27T06:41:06;92834.50;;;10.71;87.28
6038;BME280;3047;42.600;23.470;2023-02-27T06:43:33;92852.44;;;10.63;89.64
6038;BME280;3047;42.600;23.470;2023-02-27T06:46:01;92823.84;;;10.62;89.99
6038;BME280;3047;42.600;23.470;2023-02-27T06:48:28;92808.03;;;10.31;91.95
6038;BME280;3047;42.600;23.470;2023-02-27T06:50:56;92846.09;;;10.51;92.94
6038;BME280;3047;42.600;23.470;2023-02-27T06:53:24;92817.63;;;10.46;91.68
6038;BME280;3047;42.600;23.470;2023-02-27T06:55:51;92840.84;;;10.57;88.89
6038;BME280;3047;42.600;23.470;2023-02-27T06:58:17;92834.34;;;10.50;91.06
6038;BME280;3047;42.600;23.470;2023-02-27T07:00:45;92830.69;;;10.59;90.07
6038;BME280;3047;42.600;23.470;2023-02-27T07:03:12;92841.34;;;10.40;91.86
6038;BME280;3047;42.600;23.470;2023-02-27T07:05:39;92820.41;;;10.38;91.68
6038;BME280;3047;42.600;23.470;2023-02-27T07:08:09;92787.16;;;10.26;88.06
6038;BME280;3047;42.600;23.470;2023-02-27T07:10:42;92831.19;;;10.94;87.55
6038;BME280;3047;42.600;23.470;2023-02-27T07:13:11;92817.91;;;10.88;86.68
6038;BME280;3047;42.600;23.470;2023-02-27T07:15:38;92824.81;;;10.83;87.24
6038;BME280;3047;42.600;23.470;2023-02-27T07:18:05;92816.44;;;10.81;88.19
6038;BME280;3047;42.600;23.470;2023-02-27T07:20:32;92857.09;;;11.00;87.27
6038;BME280;3047;42.600;23.470;2023-02-27T07:22:58;92860.13;;;11.10;89.37
6038;BME280;3047;42.600;23.470;2023-02-27T07:25:26;92854.47;;;11.52;86.35
6038;BME280;3047;42.600;23.470;2023-02-27T07:27:53;92789.88;;;11.43;82.62
6038;BME280;3047;42.600;23.470;2023-02-27T07:30:20;92869.84;;;12.16;82.30
6038;BME280;3047;42.600;23.470;2023-02-27T07:32:47;92859.25;;;12.28;79.32
6038;BME280;3047;42.600;23.470;2023-02-27T07:35:15;92818.53;;;12.33;76.70
6038;BME280;3047;42.600;23.470;2023-02-27T07:37:42;92859.53;;;12.85;71.64
6038;BME280;3047;42.600;23.470;2023-02-27T07:40:10;92859.22;;;12.72;74.33
6038;BME280;3047;42.600;23.470;2023-02-27T07:42:38;92876.59;;;13.02;69.93
6038;BME280;3047;42.600;23.470;2023-02-27T07:45:06;92884.53;;;13.35;69.43
6038;BME280;3047;42.600;23.470;2023-02-27T07:47:33;92887.66;;;13.20;69.24
6038;BME280;3047;42.600;23.470;2023-02-27T07:49:59;92856.72;;;12.71;71.29
6038;BME280;3047;42.600;23.470;2023-02-27T07:52:26;92866.44;;;12.59;73.08
6038;BME280;3047;42.600;23.470;2023-02-27T07:54:53;92883.03;;;12.46;73.85
6038;BME280;3047;42.600;23.470;2023-02-27T07:57:19;92879.19;;;11.92;77.38
6038;BME280;3047;42.600;23.470;2023-02-27T07:59:48;92895.25;;;11.91;78.60
6038;BME280;3047;42.600;23.470;2023-02-27T08:02:14;92888.00;;;11.80;77.19
6038;BME280;3047;42.600;23.470;2023-02-27T08:04:41;92871.81;;;11.37;79.93
6038;BME280;3047;42.600;23.470;2023-02-27T08:07:07;92910.16;;;11.25;81.99
6038;BME280;3047;42.600;23.470;2023-02-27T08:09:34;92895.88;;;11.24;84.19
6038;BME280;3047;42.600;23.470;2023-02-27T08:12:01;92900.44;;;11.14;86.28
6038;BME280;3047;42.600;23.470;2023-02-27T08:14:29;92899.19;;;11.26;84.57
6038;BME280;3047;42.600;23.470;2023-02-27T08:16:57;92902.38;;;11.31;85.12
6038;BME280;3047;42.600;23.470;2023-02-27T08:19:24;92865.78;;;11.18;84.85
6038;BME280;3047;42.600;23.470;2023-02-27T08:21:51;92878.09;;;11.27;84.41
6038;BME280;3047;42.600;23.470;2023-02-27T08:24:17;92892.38;;;11.28;83.42
6038;BME280;3047;42.600;23.470;2023-02-27T08:26:44;92895.16;;;11.21;85.81
6038;BME280;3047;42.600;23.470;2023-02-27T08:29:11;92899.50;;;11.17;84.67
6038;BME280;3047;42.600;23.470;2023-02-27T08:31:37;92897.84;;;11.16;83.59
6038;BME280;3047;42.600;23.470;2023-02-27T08:34:06;92854.91;;;10.89;83.67
6038;BME280;3047;42.600;23.470;2023-02-27T08:36:32;92868.28;;;10.93;86.50
6038;BME280;3047;42.600;23.470;2023-02-27T08:38:59;92897.75;;;10.94;87.22
6038;BME280;3047;42.600;23.470;2023-02-27T08:41:26;92899.31;;;10.72;87.51
6038;BME280;3047;42.600;23.470;2023-02-27T08:43:53;92899.50;;;10.39;91.31
6038;BME280;3047;42.600;23.470;2023-02-27T08:46:19;92898.91;;;10.31;91.42
6038;BME280;3047;42.600;23.470;2023-02-27T08:48:46;92882.41;;;10.19;90.64
6038;BME280;3047;42.600;23.470;2023-02-27T08:51:14;92908.44;;;10.49;89.10
6038;BME280;3047;42.600;23.470;2023-02-27T08:53:41;92900.72;;;10.54;90.53
6038;BME280;3047;42.600;23.470;2023-02-27T08:56:07;92914.09;;;10.57;88.46
6038;BME280;3047;42.600;23.470;2023-02-27T08:58:34;92920.22;;;10.49;88.90
6038;BME280;3047;42.600;23.470;2023-02-27T09:01:01;92914.13;;;10.56;86.65
6038;BME280;3047;42.600;23.470;2023-02-27T09:03:28;92921.78;;;10.53;89.42
6038;BME280;3047;42.600;23.470;2023-02-27T09:05:57;92922.06;;;10.44;89.57
6038;BME280;3047;42.600;23.470;2023-02-27T09:08:25;92927.56;;;10.56;91.53
6038;BME280;3047;42.600;23.470;2023-02-27T09:10:55;92935.72;;;10.64;92.19
6038;BME280;3047;42.600;23.470;2023-02-27T09:13:22;92939.72;;;10.72;87.62
6038;BME280;3047;42.600;23.470;2023-02-27T09:15:49;92934.53;;;10.76;86.37
6038;BME280;3047;42.600;23.470;2023-02-27T09:18:15;92932.19;;;10.70;89.19
6038;BME280;3047;42.600;23.470;2023-02-27T09:20:42;92939.53;;;10.78;88.69
6038;BME280;3047;42.600;23.470;2023-02-27T09:23:09;92920.44;;;10.69;87.64
6038;BME280;3047;42.600;23.470;2023-02-27T09:25:37;92903.25;;;10.54;86.39
6038;BME280;3047;42.600;23.470;2023-02-27T09:28:04;92940.78;;;10.64;88.82
6038;BME280;3047;42.600;23.470;2023-02-27T09:30:31;92941.59;;;10.65;89.67
6038;BME280;3047;42.600;23.470;2023-02-27T09:32:58;92947.00;;;10.81;87.96
6038;BME280;3047;42.600;23.470;2023-02-27T09:35:25;92953.75;;;10.80;85.57
6038;BME280;3047;42.600;23.470;2023-02-27T09:37:52;92936.81;;;10.84;83.80
6038;BME280;3047;42.600;23.470;2023-02-27T09:40:21;92943.31;;;10.91;87.00
6038;BME280;3047;42.600;23.470;2023-02-27T09:42:53;92953.34;;;10.94;84.86
6038;BME280;3047;42.600;23.470;2023-02-27T09:45:23;92963.31;;;10.97;86.84
6038;BME280;3047;42.600;23.470;2023-02-27T09:47:53;92961.34;;;11.07;85.41
6038;BME280;3047;42.600;23.470;2023-02-27T09:50:34;92913.06;;;10.63;83.79
6038;BME280;3047;42.600;23.470;2023-02-27T09:53:03;92935.78;;;10.63;84.54
6038;BME280;3047;42.600;23.470;2023-02-27T09:55:34;92970.44;;;10.86;85.64
6038;BME280;3047;42.600;23.470;2023-02-27T09:58:23;92962.06;;;10.84;84.18
6038;BME280;3047;42.600;23.470;2023-02-27T10:00:55;92964.53;;;10.85;86.40
6038;BME280;3047;42.600;23.470;2023-02-27T10:03:37;92959.09;;;10.98;87.72
6038;BME280;3047;42.600;23.470;2023-02-27T10:06:22;92975.56;;;11.09;87.71
6038;BME280;3047;42.600;23.470;2023-02-27T10:08:57;92968.81;;;11.10;87.10
6038;BME280;3047;42.600;23.470;2023-02-27T10:11:42;92963.88;;;11.07;91.49
6038;BME280;3047;42.600;23.470;2023-02-27T10:14:24;92963.66;;;11.13;88.67
6038;BME280;3047;42.600;23.470;2023-02-27T10:16:52;92966.00;;;11.19;90.92
6038;BME280;3047;42.600;23.470;2023-02-27T10:19:25;92960.38;;;11.36;86.01
6038;BME280;3047;42.600;23.470;2023-02-27T10:21:53;92971.13;;;11.43;87.81
6038;BME280;3047;42.600;23.470;2023-02-27T10:24:24;92930.72;;;11.16;88.87
6038;BME280;3047;42.600;23.470;2023-02-27T10:26:54;92948.41;;;11.41;84.67
6038;BME280;3047;42.600;23.470;2023-02-27T10:29:28;92970.66;;;11.56;84.18
6038;BME280;3047;42.600;23.470;2023-02-27T10:31:59;92963.66;;;11.39;84.05
6038;BME280;3047;42.600;23.470;2023-02-27T10:34:29;92984.69;;;11.40;88.08
6038;BME280;3047;42.600;23.470;2023-02-27T10:36:59;92974.44;;;11.45;88.82
6038;BME280;3047;42.600;23.470;2023-02-27T10:39:29;92977.16;;;11.63;87.06
6038;BME280;3047;42.600;23.470;2023-02-27T10:42:02;92943.66;;;11.57;84.17
6038;BME280;3047;42.600;23.470;2023-02-27T10:44:32;92968.25;;;11.77;84.38
6038;BME280;3047;42.600;23.470;2023-02-27T10:46:59;92955.00;;;11.70;84.93
6038;BME280;3047;42.600;23.470;2023-02-27T10:49:25;92966.13;;;11.91;84.19
6038;BME280;3047;42.600;23.470;2023-02-27T10:52:05;92962.88;;;11.87;85.13
6038;BME280;3047;42.600;23.470;2023-02-27T10:54:33;92962.69;;;11.92;85.86
6038;BME280;3047;42.600;23.470;2023-02-27T10:57:01;92966.06;;;11.93;84.88
6038;BME280;3047;42.600;23.470;2023-02-27T10:59:34;92917.09;;;11.69;84.51
6038;BME280;3047;42.600;23.470;2023-02-27T11:02:05;92969.41;;;11.93;83.91
6038;BME280;3047;42.600;23.470;2023-02-27T11:04:35;92960.50;;;11.83;84.65
6038;BME280;3047;42.600;23.470;2023-02-27T11:07:05;92911.25;;;11.67;86.97
6038;BME280;3047;42.600;23.470;2023-02-27T11:09:33;92954.84;;;12.00;87.58
6038;BME280;3047;42.600;23.470;2023-02-27T11:12:21;92931.03;;;11.80;88.68
6038;BME280;3047;42.600;23.470;2023-02-27T11:14:53;92946.44;;;12.21;86.78
6038;BME280;3047;42.600;23.470;2023-02-27T11:17:23;92920.34;;;12.19;86.07
6038;BME280;3047;42.600;23.470;2023-02-27T11:19:50;92939.50;;;12.26;84.59
6038;BME280;3047;42.600;23.470;2023-02-27T11:22:18;92944.88;;;12.41;84.73
6038;BME280;3047;42.600;23.470;2023-02-27T11:24:46;92946.00;;;12.33;86.22
6038;BME280;3047;42.600;23.470;2023-02-27T11:27:25;92930.72;;;12.35;84.39
6038;BME280;3047;42.600;23.470;2023-02-27T11:29:58;92926.81;;;12.50;83.59
6038;BME280;3047;42.600;23.470;2023-02-27T11:32:34;92927.69;;;12.49;82.95
6038;BME280;3047;42.600;23.470;2023-02-27T11:35:01;92930.88;;;12.54;84.08
6038;BME280;3047;42.600;23.470;2023-02-27T11:37:32;92913.44;;;12.46;81.95
6038;BME280;3047;42.600;23.470;2023-02-27T11:40:11;92884.09;;;12.41;84.55
6038;BME280;3047;42.600;23.470;2023-02-27T11:42:43;92930.22;;;12.71;84.67
6038;BME280;3047;42.600;23.470;2023-02-27T11:45:26;92928.31;;;12.98;86.68
6038;BME280;3047;42.600;23.470;2023-02-27T11:47:56;92932.59;;;13.16;84.77
6038;BME280;3047;42.600;23.470;2023-02-27T11:50:42;92932.78;;;13.33;79.82
6038;BME280;3047;42.600;23.470;2023-02-27T11:53:31;92941.59;;;13.66;82.23
6038;BME280;3047;42.600;23.470;2023-02-27T11:56:01;92940.56;;;13.70;79.84
6038;BME280;3047;42.600;23.470;2023-02-27T11:58:33;92951.53;;;13.70;76.44
6038;BME280;3047;42.600;23.470;2023-02-27T12:01:06;92937.16;;;13.50;75.70
6038;BME280;3047;42.600;23.470;2023-02-27T12:03:42;92935.06;;;13.40;76.70
6038;BME280;3047;42.600;23.470;2023-02-27T12:06:16;92909.84;;;13.15;78.21
6038;BME280;3047;42.600;23.470;2023-02-27T12:08:49;92919.69;;;13.02;80.21
6038;BME280;3047;42.600;23.470;2023-02-27T12:11:21;92946.03;;;12.98;83.96
6038;BME280;3047;42.600;23.470;2023-02-27T12:13:56;92940.84;;;13.01;87.38
6038;BME280;3047;42.600;23.470;2023-02-27T12:16:29;92937.81;;;12.93;84.86
6038;BME280;3047;42.600;23.470;2023-02-27T12:19:01;92920.00;;;12.94;88.36
6038;BME280;3047;42.600;23.470;2023-02-27T12:21:35;92919.22;;;12.92;91.58
6038;BME280;3047;42.600;23.470;2023-02-27T12:24:08;92924.28;;;12.92;90.40
6038;BME280;3047;42.600;23.470;2023-02-27T12:26:42;92931.25;;;12.87;92.95
6038;BME280;3047;42.600;23.470;2023-02-27T12:29:16;92923.00;;;12.82;98.01
6038;BME280;3047;42.600;23.470;2023-02-27T12:31:49;92919.53;;;12.84;98.29
6038;BME280;3047;42.600;23.470;2023-02-27T12:34:25;92904.16;;;12.67;100.00
6038;BME280;3047;42.600;23.470;2023-02-27T12:36:56;92907.59;;;12.66;100.00
6038;BME280;3047;42.600;23.470;2023-02-27T12:39:26;92882.09;;;12.49;100.00
6038;BME280;3047;42.600;23.470;2023-02-27T12:45:01;92926.09;;;12.68;99.13
6038;BME280;3047;42.600;23.470;2023-02-27T12:47:39;92930.28;;;12.69;98.67
6038;BME280;3047;42.600;23.470;2023-02-27T12:50:14;92929.31;;;12.72;100.00
6038;BME280;3047;42.600;23.470;2023-02-27T12:52:50;92882.31;;;12.43;100.00
6038;BME280;3047;42.600;23.470;2023-02-27T12:55:24;92922.69;;;12.69;100.00
6038;BME280;3047;42.600;23.470;2023-02-27T12:58:17;92922.41;;;12.75;100.00
6038;BME280;3047;42.600;23.470;2023-02-27T13:00:52;92924.13;;;12.75;100.00
6038;BME280;3047;42.600;23.470;2023-02-27T13:03:30;92933.16;;;12.82;100.00
6038;BME280;3047;42.600;23.470;2023-02-27T13:06:03;92921.06;;;12.67;98.26
6038;BME280;3047;42.600;23.470;2023-02-27T13:08:55;92929.91;;;12.78;94.92
6038;BME280;3047;42.600;23.470;2023-02-27T13:11:35;92906.94;;;12.61;95.52
6038;BME280;3047;42.600;23.470;2023-02-27T13:14:07;92919.63;;;12.61;93.56
6038;BME280;3047;42.600;23.470;2023-02-27T13:16:42;92904.41;;;12.61;95.60
6038;BME280;3047;42.600;23.470;2023-02-27T13:19:13;92928.44;;;12.73;98.34
6038;BME280;3047;42.600;23.470;2023-02-27T13:21:45;92929.19;;;12.75;99.46
6038;BME280;3047;42.600;23.470;2023-02-27T13:24:23;92924.13;;;12.75;98.01
6038;BME280;3047;42.600;23.470;2023-02-27T13:26:56;92905.31;;;12.60;100.00
6038;BME280;3047;42.600;23.470;2023-02-27T13:29:31;92928.50;;;12.71;100.00
6038;BME280;3047;42.600;23.470;2023-02-27T13:32:05;92900.16;;;12.61;95.14
6038;BME280;3047;42.600;23.470;2023-02-27T13:34:42;92922.19;;;12.81;92.03
6038;BME280;3047;42.600;23.470;2023-02-27T13:37:09;92924.94;;;12.75;89.47
6038;BME280;3047;42.600;23.470;2023-02-27T13:39:50;92927.56;;;12.74;87.23